sensor_id;sensor_type;location;lat;lon;timestamp;pressure;altitude;pressure_sealevel;temperature;humidity
4024;BME280;2026;51.002;13.668;2022-12-16T00:03:07;98364.47;;;-5.19;85.06
4024;BME280;2026;51.002;13.668;2022-12-16T00:08:10;98364.47;;;-5.19;85.91
4024;BME280;2026;51.002;13.668;2022-12-16T00:13:13;98351.84;;;-5.11;85.61
4024;BME280;2026;51.002;13.668;2022-12-16T00:18:17;98352.81;;;-5.02;85.25
4024;BME280;2026;51.002;13.668;2022-12-16T00:23:21;98350.19;;;-5.22;85.57
4024;BME280;2026;51.002;13.668;2022-12-16T00:28:24;98358.25;;;-5.69;87.01
4024;BME280;2026;51.002;13.668;2022-12-16T00:33:28;98361.75;;;-5.17;85.84
4024;BME280;2026;51.002;13.668;2022-12-16T00:38:32;98367.09;;;-4.89;84.69
4024;BME280;2026;51.002;13.668;2022-12-16T00:43:35;98360.09;;;-4.87;84.61
4024;BME280;2026;51.002;13.668;2022-12-16T00:48:39;98362.75;;;-4.99;85.40
4024;BME280;2026;51.002;13.668;2022-12-16T00:53:42;98367.22;;;-5.32;86.47
4024;BME280;2026;51.002;13.668;2022-12-16T00:58:45;98356.19;;;-4.92;85.46
4024;BME280;2026;51.002;13.668;2022-12-16T01:03:50;98354.63;;;-4.73;84.77
4024;BME280;2026;51.002;13.668;2022-12-16T01:08:53;98352.06;;;-4.73;84.67
4024;BME280;2026;51.002;13.668;2022-12-16T01:13:56;98367.28;;;-4.71;85.01
4024;BME280;2026;51.002;13.668;2022-12-16T01:19:01;98380.53;;;-4.87;85.81
4024;BME280;2026;51.002;13.668;2022-12-16T01:24:05;98372.81;;;-4.66;85.15
4024;BME280;2026;51.002;13.668;2022-12-16T01:29:08;98361.66;;;-4.65;85.56
4024;BME280;2026;51.002;13.668;2022-12-16T01:34:12;98357.09;;;-4.61;85.11
4024;BME280;2026;51.002;13.668;2022-12-16T01:39:16;98360.78;;;-4.85;85.89
4024;BME280;2026;51.002;13.668;2022-12-16T01:44:22;98362.50;;;-5.06;87.91
4024;BME280;2026;51.002;13.668;2022-12-16T01:49:29;98363.13;;;-4.72;86.43
4024;BME280;2026;51.002;13.668;2022-12-16T01:54:39;98359.50;;;-4.60;85.67
4024;BME280;2026;51.002;13.668;2022-12-16T01:59:46;98338.66;;;-4.45;85.38
4024;BME280;2026;51.002;13.668;2022-12-16T02:04:54;98341.34;;;-4.37;84.86
4024;BME280;2026;51.002;13.668;2022-12-16T02:10:15;98335.81;;;-4.32;84.73
4024;BME280;2026;51.002;13.668;2022-12-16T02:15:25;98337.97;;;-4.28;85.06
4024;BME280;2026;51.002;13.668;2022-12-16T02:26:31;98332.47;;;-4.23;84.78
4024;BME280;2026;51.002;13.668;2022-12-16T02:31:43;98325.72;;;-4.14;84.77
4024;BME280;2026;51.002;13.668;2022-12-16T02:37:03;98312.13;;;-4.15;84.79
4024;BME280;2026;51.002;13.668;2022-12-16T02:42:13;98314.81;;;-4.06;84.53
4024;BME280;2026;51.002;13.668;2022-12-16T02:47:19;98308.34;;;-4.01;84.62
4024;BME280;2026;51.002;13.668;2022-12-16T02:52:24;98302.16;;;-3.98;84.20
4024;BME280;2026;51.002;13.668;2022-12-16T02:57:40;98306.66;;;-4.90;87.96
4024;BME280;2026;51.002;13.668;2022-12-16T03:02:53;98299.66;;;-5.08;88.03
4024;BME280;2026;51.002;13.668;2022-12-16T03:08:01;98301.19;;;-4.56;86.87
4024;BME280;2026;51.002;13.668;2022-12-16T03:13:07;98293.81;;;-4.30;85.62
4024;BME280;2026;51.002;13.668;2022-12-16T03:18:14;98288.81;;;-4.12;84.88
4024;BME280;2026;51.002;13.668;2022-12-16T03:23:21;98277.91;;;-4.14;84.48
4024;BME280;2026;51.002;13.668;2022-12-16T03:28:35;98287.31;;;-4.14;84.31
4024;BME280;2026;51.002;13.668;2022-12-16T03:33:45;98278.16;;;-4.07;84.45
4024;BME280;2026;51.002;13.668;2022-12-16T03:38:50;98279.09;;;-3.98;84.27
4024;BME280;2026;51.002;13.668;2022-12-16T03:43:53;98292.69;;;-3.98;84.52
4024;BME280;2026;51.002;13.668;2022-12-16T03:48:57;98295.00;;;-4.04;84.78
4024;BME280;2026;51.002;13.668;2022-12-16T03:54:00;98293.22;;;-3.94;85.15
4024;BME280;2026;51.002;13.668;2022-12-16T03:59:03;98293.78;;;-4.00;85.19
4024;BME280;2026;51.002;13.668;2022-12-16T04:04:08;98299.16;;;-3.84;84.61
4024;BME280;2026;51.002;13.668;2022-12-16T04:09:10;98304.94;;;-3.82;84.37
4024;BME280;2026;51.002;13.668;2022-12-16T04:14:14;98303.22;;;-3.91;84.13
4024;BME280;2026;51.002;13.668;2022-12-16T04:19:36;98305.47;;;-3.78;83.76
4024;BME280;2026;51.002;13.668;2022-12-16T04:24:59;98310.19;;;-3.73;83.89
4024;BME280;2026;51.002;13.668;2022-12-16T04:30:05;98304.00;;;-3.71;83.18
4024;BME280;2026;51.002;13.668;2022-12-16T04:35:25;98314.06;;;-3.69;82.88
4024;BME280;2026;51.002;13.668;2022-12-16T04:40:45;98320.53;;;-3.55;82.63
4024;BME280;2026;51.002;13.668;2022-12-16T04:46:05;98317.97;;;-3.55;82.33
4024;BME280;2026;51.002;13.668;2022-12-16T04:51:27;98315.94;;;-3.51;81.28
4024;BME280;2026;51.002;13.668;2022-12-16T04:56:47;98325.03;;;-3.67;81.75
4024;BME280;2026;51.002;13.668;2022-12-16T05:02:07;98336.81;;;-3.46;81.14
4024;BME280;2026;51.002;13.668;2022-12-16T05:07:29;98349.25;;;-3.51;81.42
4024;BME280;2026;51.002;13.668;2022-12-16T05:12:51;98351.94;;;-3.43;80.88
4024;BME280;2026;51.002;13.668;2022-12-16T05:18:13;98359.88;;;-3.36;80.51
4024;BME280;2026;51.002;13.668;2022-12-16T05:23:35;98357.97;;;-3.34;80.88
4024;BME280;2026;51.002;13.668;2022-12-16T05:29:03;98358.91;;;-3.25;80.00
4024;BME280;2026;51.002;13.668;2022-12-16T05:34:24;98366.19;;;-3.31;80.58
4024;BME280;2026;51.002;13.668;2022-12-16T05:39:45;98358.78;;;-3.34;80.45
4024;BME280;2026;51.002;13.668;2022-12-16T05:45:06;98356.22;;;-3.34;80.19
4024;BME280;2026;51.002;13.668;2022-12-16T05:50:28;98352.44;;;-3.30;79.58
4024;BME280;2026;51.002;13.668;2022-12-16T05:55:49;98366.88;;;-3.29;79.90
4024;BME280;2026;51.002;13.668;2022-12-16T06:01:10;98371.19;;;-3.29;80.02
4024;BME280;2026;51.002;13.668;2022-12-16T06:06:31;98373.88;;;-3.31;78.61
4024;BME280;2026;51.002;13.668;2022-12-16T06:11:53;98378.41;;;-3.52;78.68
4024;BME280;2026;51.002;13.668;2022-12-16T06:17:13;98383.53;;;-3.52;78.88
4024;BME280;2026;51.002;13.668;2022-12-16T06:22:33;98394.97;;;-3.57;79.17
4024;BME280;2026;51.002;13.668;2022-12-16T06:27:55;98392.41;;;-3.37;79.42
4024;BME280;2026;51.002;13.668;2022-12-16T06:33:20;98403.63;;;-3.68;79.12
4024;BME280;2026;51.002;13.668;2022-12-16T06:38:41;98412.13;;;-3.87;80.56
4024;BME280;2026;51.002;13.668;2022-12-16T06:44:02;98423.84;;;-4.04;81.69
4024;BME280;2026;51.002;13.668;2022-12-16T06:49:28;98441.88;;;-4.15;81.53
4024;BME280;2026;51.002;13.668;2022-12-16T06:54:45;98453.88;;;-4.06;81.29
4024;BME280;2026;51.002;13.668;2022-12-16T07:00:08;98448.81;;;-3.76;80.97
4024;BME280;2026;51.002;13.668;2022-12-16T07:05:29;98458.78;;;-3.73;80.43
4024;BME280;2026;51.002;13.668;2022-12-16T07:10:49;98472.53;;;-3.55;80.31
4024;BME280;2026;51.002;13.668;2022-12-16T07:16:19;98476.69;;;-3.44;79.96
4024;BME280;2026;51.002;13.668;2022-12-16T07:21:39;98486.28;;;-3.36;79.81
4024;BME280;2026;51.002;13.668;2022-12-16T07:27:00;98483.44;;;-3.33;79.83
4024;BME280;2026;51.002;13.668;2022-12-16T07:32:21;98507.06;;;-3.19;79.58
4024;BME280;2026;51.002;13.668;2022-12-16T07:37:42;98518.13;;;-3.29;80.02
4024;BME280;2026;51.002;13.668;2022-12-16T07:43:02;98505.16;;;-2.97;78.56
4024;BME280;2026;51.002;13.668;2022-12-16T07:48:24;98519.28;;;-2.93;78.63
4024;BME280;2026;51.002;13.668;2022-12-16T07:53:44;98526.72;;;-2.90;78.44
4024;BME280;2026;51.002;13.668;2022-12-16T07:59:05;98523.88;;;-2.87;78.86
4024;BME280;2026;51.002;13.668;2022-12-16T08:04:26;98527.91;;;-2.75;78.82
4024;BME280;2026;51.002;13.668;2022-12-16T08:09:47;98535.31;;;-2.62;78.72
4024;BME280;2026;51.002;13.668;2022-12-16T08:15:07;98526.66;;;-2.61;78.32
4024;BME280;2026;51.002;13.668;2022-12-16T08:20:29;98537.78;;;-2.42;77.95
4024;BME280;2026;51.002;13.668;2022-12-16T08:25:50;98544.66;;;-2.33;77.73
4024;BME280;2026;51.002;13.668;2022-12-16T08:31:07;98547.72;;;-2.57;78.09
4024;BME280;2026;51.002;13.668;2022-12-16T08:36:29;98552.19;;;-2.59;78.84
4024;BME280;2026;51.002;13.668;2022-12-16T08:41:49;98566.81;;;-2.89;78.68
4024;BME280;2026;51.002;13.668;2022-12-16T08:47:09;98559.16;;;-2.41;78.67
4024;BME280;2026;51.002;13.668;2022-12-16T08:52:31;98553.34;;;-2.43;77.83
4024;BME280;2026;51.002;13.668;2022-12-16T08:57:52;98574.22;;;-1.91;77.21
4024;BME280;2026;51.002;13.668;2022-12-16T09:03:12;98585.78;;;-2.42;78.00
4024;BME280;2026;51.002;13.668;2022-12-16T09:08:35;98585.81;;;-2.72;79.68
4024;BME280;2026;51.002;13.668;2022-12-16T09:13:56;98605.03;;;-3.06;80.39
4024;BME280;2026;51.002;13.668;2022-12-16T09:19:17;98612.44;;;-3.22;82.29
4024;BME280;2026;51.002;13.668;2022-12-16T09:24:39;98614.75;;;-3.00;80.95
4024;BME280;2026;51.002;13.668;2022-12-16T09:29:59;98618.94;;;-3.08;80.92
4024;BME280;2026;51.002;13.668;2022-12-16T09:35:25;98616.72;;;-2.54;80.47
4024;BME280;2026;51.002;13.668;2022-12-16T09:40:46;98621.13;;;-1.60;77.24
4024;BME280;2026;51.002;13.668;2022-12-16T09:46:11;98619.34;;;-0.77;73.95
4024;BME280;2026;51.002;13.668;2022-12-16T09:51:35;98637.25;;;-1.96;74.82
4024;BME280;2026;51.002;13.668;2022-12-16T09:56:58;98643.06;;;-2.52;77.81
4024;BME280;2026;51.002;13.668;2022-12-16T10:02:21;98631.34;;;-2.07;77.41
4024;BME280;2026;51.002;13.668;2022-12-16T10:07:47;98638.47;;;-0.80;72.45
4024;BME280;2026;51.002;13.668;2022-12-16T10:13:22;98648.66;;;-1.71;74.30
4024;BME280;2026;51.002;13.668;2022-12-16T10:18:50;98641.72;;;-1.60;75.44
4024;BME280;2026;51.002;13.668;2022-12-16T10:24:24;98647.22;;;-0.73;72.59
4024;BME280;2026;51.002;13.668;2022-12-16T10:29:50;98644.50;;;0.43;69.55
4024;BME280;2026;51.002;13.668;2022-12-16T10:35:18;98643.16;;;0.82;66.99
4024;BME280;2026;51.002;13.668;2022-12-16T10:40:40;98653.06;;;-0.18;68.39
4024;BME280;2026;51.002;13.668;2022-12-16T10:46:05;98658.50;;;0.06;70.12
4024;BME280;2026;51.002;13.668;2022-12-16T10:51:28;98666.50;;;-0.95;70.96
4024;BME280;2026;51.002;13.668;2022-12-16T10:56:53;98659.66;;;-0.23;70.57
4024;BME280;2026;51.002;13.668;2022-12-16T11:02:18;98660.31;;;-0.66;71.35
4024;BME280;2026;51.002;13.668;2022-12-16T11:07:38;98663.88;;;-0.14;70.15
4024;BME280;2026;51.002;13.668;2022-12-16T11:13:11;98676.88;;;-1.99;75.35
4024;BME280;2026;51.002;13.668;2022-12-16T11:18:48;98682.94;;;-2.67;77.93
4024;BME280;2026;51.002;13.668;2022-12-16T11:24:14;98675.75;;;-2.34;79.16
4024;BME280;2026;51.002;13.668;2022-12-16T11:29:48;98676.06;;;-1.62;75.49
4024;BME280;2026;51.002;13.668;2022-12-16T11:35:12;98680.59;;;-2.31;77.44
4024;BME280;2026;51.002;13.668;2022-12-16T11:40:34;98687.06;;;-2.17;76.68
4024;BME280;2026;51.002;13.668;2022-12-16T11:45:56;98696.50;;;-1.98;76.61
4024;BME280;2026;51.002;13.668;2022-12-16T11:51:21;98702.97;;;-1.94;76.39
4024;BME280;2026;51.002;13.668;2022-12-16T11:56:44;98702.88;;;-1.64;76.04
4024;BME280;2026;51.002;13.668;2022-12-16T12:02:11;98704.38;;;-1.33;74.32
4024;BME280;2026;51.002;13.668;2022-12-16T12:07:40;98711.41;;;-1.36;74.28
4024;BME280;2026;51.002;13.668;2022-12-16T12:13:06;98710.97;;;-1.59;74.97
4024;BME280;2026;51.002;13.668;2022-12-16T12:18:37;98725.03;;;-1.53;74.24
4024;BME280;2026;51.002;13.668;2022-12-16T12:24:06;98732.50;;;-2.18;76.65
4024;BME280;2026;51.002;13.668;2022-12-16T12:29:37;98735.75;;;-2.75;78.65
4024;BME280;2026;51.002;13.668;2022-12-16T12:35:12;98742.44;;;-3.13;78.61
4024;BME280;2026;51.002;13.668;2022-12-16T12:40:52;98745.09;;;-3.24;80.19
4024;BME280;2026;51.002;13.668;2022-12-16T12:46:22;98744.94;;;-2.82;79.06
4024;BME280;2026;51.002;13.668;2022-12-16T12:51:59;98744.13;;;-2.53;76.62
4024;BME280;2026;51.002;13.668;2022-12-16T12:57:25;98748.56;;;-2.94;79.14
4024;BME280;2026;51.002;13.668;2022-12-16T13:02:53;98757.66;;;-2.51;77.25
4024;BME280;2026;51.002;13.668;2022-12-16T13:08:43;98771.16;;;-2.49;77.03
4024;BME280;2026;51.002;13.668;2022-12-16T13:20:35;98782.66;;;-2.33;76.14
4024;BME280;2026;51.002;13.668;2022-12-16T13:26:03;98790.03;;;-2.89;77.60
4024;BME280;2026;51.002;13.668;2022-12-16T13:31:27;98800.00;;;-2.86;78.86
4024;BME280;2026;51.002;13.668;2022-12-16T13:36:55;98805.69;;;-3.23;79.42
4024;BME280;2026;51.002;13.668;2022-12-16T13:42:49;98808.69;;;-2.67;77.42
4024;BME280;2026;51.002;13.668;2022-12-16T13:48:33;98823.94;;;-3.69;79.46
4024;BME280;2026;51.002;13.668;2022-12-16T13:53:57;98833.38;;;-3.91;82.81
4024;BME280;2026;51.002;13.668;2022-12-16T13:59:20;98841.75;;;-3.89;82.23
4024;BME280;2026;51.002;13.668;2022-12-16T14:04:45;98857.38;;;-3.92;82.26
4024;BME280;2026;51.002;13.668;2022-12-16T14:10:22;98854.66;;;-4.12;82.04
4024;BME280;2026;51.002;13.668;2022-12-16T14:15:54;98879.09;;;-4.19;83.26
4024;BME280;2026;51.002;13.668;2022-12-16T14:21:24;98885.88;;;-3.43;80.61
4024;BME280;2026;51.002;13.668;2022-12-16T14:26:49;98891.56;;;-3.39;79.14
4024;BME280;2026;51.002;13.668;2022-12-16T14:32:24;98889.63;;;-3.25;79.55
4024;BME280;2026;51.002;13.668;2022-12-16T14:37:46;98897.94;;;-3.12;78.99
4024;BME280;2026;51.002;13.668;2022-12-16T14:43:10;98913.38;;;-3.23;78.81
4024;BME280;2026;51.002;13.668;2022-12-16T14:48:33;98914.94;;;-3.11;78.17
4024;BME280;2026;51.002;13.668;2022-12-16T14:54:13;98927.34;;;-3.91;80.58
4024;BME280;2026;51.002;13.668;2022-12-16T14:59:35;98933.13;;;-4.22;82.15
4024;BME280;2026;51.002;13.668;2022-12-16T15:04:55;98940.22;;;-4.26;81.29
4024;BME280;2026;51.002;13.668;2022-12-16T15:10:18;98941.38;;;-4.18;82.35
4024;BME280;2026;51.002;13.668;2022-12-16T15:15:42;98954.63;;;-4.13;81.53
4024;BME280;2026;51.002;13.668;2022-12-16T15:21:06;98950.56;;;-4.27;80.29
4024;BME280;2026;51.002;13.668;2022-12-16T15:26:30;98967.59;;;-3.82;80.18
4024;BME280;2026;51.002;13.668;2022-12-16T15:31:51;98971.06;;;-3.72;79.74
4024;BME280;2026;51.002;13.668;2022-12-16T15:37:17;98986.69;;;-3.54;78.71
4024;BME280;2026;51.002;13.668;2022-12-16T15:42:40;98988.66;;;-3.46;78.80
4024;BME280;2026;51.002;13.668;2022-12-16T15:48:10;98994.19;;;-3.62;77.52
4024;BME280;2026;51.002;13.668;2022-12-16T15:53:35;99004.03;;;-3.78;78.09
4024;BME280;2026;51.002;13.668;2022-12-16T16:04:29;99024.28;;;-3.75;78.09
4024;BME280;2026;51.002;13.668;2022-12-16T16:09:49;99040.88;;;-4.37;80.33
4024;BME280;2026;51.002;13.668;2022-12-16T16:15:17;99033.66;;;-4.31;80.48
4024;BME280;2026;51.002;13.668;2022-12-16T16:20:39;99035.63;;;-4.12;79.53
4024;BME280;2026;51.002;13.668;2022-12-16T16:25:59;99044.47;;;-4.28;79.79
4024;BME280;2026;51.002;13.668;2022-12-16T16:31:20;99043.22;;;-4.22;79.80
4024;BME280;2026;51.002;13.668;2022-12-16T16:36:42;99049.97;;;-4.21;79.79
4024;BME280;2026;51.002;13.668;2022-12-16T16:42:03;99052.63;;;-4.34;79.77
4024;BME280;2026;51.002;13.668;2022-12-16T16:47:34;99059.50;;;-4.23;80.48
4024;BME280;2026;51.002;13.668;2022-12-16T16:52:56;99072.78;;;-4.06;79.18
4024;BME280;2026;51.002;13.668;2022-12-16T16:58:21;99065.31;;;-4.21;79.95
4024;BME280;2026;51.002;13.668;2022-12-16T17:03:44;99074.16;;;-4.25;79.91
4024;BME280;2026;51.002;13.668;2022-12-16T17:09:06;99080.00;;;-4.23;80.92
4024;BME280;2026;51.002;13.668;2022-12-16T17:14:32;99088.22;;;-4.42;82.19
4024;BME280;2026;51.002;13.668;2022-12-16T17:19:53;99106.50;;;-4.35;81.75
4024;BME280;2026;51.002;13.668;2022-12-16T17:25:15;99109.09;;;-4.71;83.56
4024;BME280;2026;51.002;13.668;2022-12-16T17:30:35;99111.59;;;-4.47;82.90
4024;BME280;2026;51.002;13.668;2022-12-16T17:35:55;99134.44;;;-4.21;81.53
4024;BME280;2026;51.002;13.668;2022-12-16T17:41:18;99127.94;;;-4.14;80.78
4024;BME280;2026;51.002;13.668;2022-12-16T17:46:38;99132.38;;;-4.04;80.31
4024;BME280;2026;51.002;13.668;2022-12-16T17:51:58;99136.78;;;-3.95;79.68
4024;BME280;2026;51.002;13.668;2022-12-16T17:57:20;99147.97;;;-3.85;79.79
4024;BME280;2026;51.002;13.668;2022-12-16T18:02:55;99157.97;;;-3.93;79.93
4024;BME280;2026;51.002;13.668;2022-12-16T18:08:16;99155.53;;;-3.83;79.83
4024;BME280;2026;51.002;13.668;2022-12-16T18:13:38;99156.81;;;-3.89;79.83
4024;BME280;2026;51.002;13.668;2022-12-16T18:18:59;99158.09;;;-3.60;78.46
4024;BME280;2026;51.002;13.668;2022-12-16T18:24:19;99164.38;;;-3.76;79.53
4024;BME280;2026;51.002;13.668;2022-12-16T18:29:48;99165.91;;;-3.73;79.57
4024;BME280;2026;51.002;13.668;2022-12-16T18:35:08;99175.13;;;-3.71;79.50
4024;BME280;2026;51.002;13.668;2022-12-16T18:40:29;99183.13;;;-3.87;79.54
4024;BME280;2026;51.002;13.668;2022-12-16T18:45:54;99180.34;;;-3.72;79.84
4024;BME280;2026;51.002;13.668;2022-12-16T18:51:14;99182.09;;;-3.84;79.72
4024;BME280;2026;51.002;13.668;2022-12-16T18:56:35;99189.19;;;-3.65;79.86
4024;BME280;2026;51.002;13.668;2022-12-16T19:01:57;99191.16;;;-3.57;80.11
4024;BME280;2026;51.002;13.668;2022-12-16T19:07:17;99192.91;;;-3.69;79.84
4024;BME280;2026;51.002;13.668;2022-12-16T19:12:46;99196.34;;;-4.16;81.01
4024;BME280;2026;51.002;13.668;2022-12-16T19:18:22;99204.56;;;-3.99;81.49
4024;BME280;2026;51.002;13.668;2022-12-16T19:23:43;99206.91;;;-3.73;80.35
4024;BME280;2026;51.002;13.668;2022-12-16T19:29:03;99201.44;;;-3.69;79.89
4024;BME280;2026;51.002;13.668;2022-12-16T19:34:25;99208.66;;;-3.62;80.05
4024;BME280;2026;51.002;13.668;2022-12-16T19:39:45;99210.63;;;-3.66;80.31
4024;BME280;2026;51.002;13.668;2022-12-16T19:45:06;99219.25;;;-3.56;80.24
4024;BME280;2026;51.002;13.668;2022-12-16T19:50:28;99219.50;;;-3.59;79.88
4024;BME280;2026;51.002;13.668;2022-12-16T19:55:53;99240.09;;;-3.72;79.71
4024;BME280;2026;51.002;13.668;2022-12-16T20:01:14;99245.22;;;-3.72;80.16
4024;BME280;2026;51.002;13.668;2022-12-16T20:06:36;99258.16;;;-3.73;79.82
4024;BME280;2026;51.002;13.668;2022-12-16T20:11:57;99266.19;;;-3.78;79.65
4024;BME280;2026;51.002;13.668;2022-12-16T20:17:17;99272.44;;;-3.82;79.83
4024;BME280;2026;51.002;13.668;2022-12-16T20:22:39;99271.41;;;-3.79;80.31
4024;BME280;2026;51.002;13.668;2022-12-16T20:27:59;99277.03;;;-3.74;80.18
4024;BME280;2026;51.002;13.668;2022-12-16T20:33:25;99294.03;;;-3.73;80.28
4024;BME280;2026;51.002;13.668;2022-12-16T20:38:47;99293.34;;;-3.64;79.37
4024;BME280;2026;51.002;13.668;2022-12-16T20:44:07;99304.03;;;-3.82;79.52
4024;BME280;2026;51.002;13.668;2022-12-16T20:49:28;99309.16;;;-3.70;79.55
4024;BME280;2026;51.002;13.668;2022-12-16T20:54:49;99311.03;;;-3.72;78.87
4024;BME280;2026;51.002;13.668;2022-12-16T21:00:11;99310.81;;;-3.58;79.03
4024;BME280;2026;51.002;13.668;2022-12-16T21:05:32;99324.53;;;-3.70;78.98
4024;BME280;2026;51.002;13.668;2022-12-16T21:10:58;99321.50;;;-3.75;79.08
4024;BME280;2026;51.002;13.668;2022-12-16T21:16:18;99332.47;;;-3.73;79.21
4024;BME280;2026;51.002;13.668;2022-12-16T21:21:38;99337.78;;;-3.88;78.50
4024;BME280;2026;51.002;13.668;2022-12-16T21:27:00;99348.28;;;-3.79;79.34
4024;BME280;2026;51.002;13.668;2022-12-16T21:32:20;99345.78;;;-3.92;79.42
4024;BME280;2026;51.002;13.668;2022-12-16T21:37:45;99354.41;;;-3.93;79.32
4024;BME280;2026;51.002;13.668;2022-12-16T21:43:06;99361.19;;;-3.81;79.27
4024;BME280;2026;51.002;13.668;2022-12-16T21:48:27;99365.25;;;-3.90;79.43
4024;BME280;2026;51.002;13.668;2022-12-16T21:53:47;99367.72;;;-3.88;80.13
4024;BME280;2026;51.002;13.668;2022-12-16T21:59:11;99382.09;;;-3.99;79.93
4024;BME280;2026;51.002;13.668;2022-12-16T22:04:46;99395.13;;;-4.39;81.45
4024;BME280;2026;51.002;13.668;2022-12-16T22:10:07;99402.03;;;-4.15;81.25
4024;BME280;2026;51.002;13.668;2022-12-16T22:15:28;99402.41;;;-4.09;80.68
4024;BME280;2026;51.002;13.668;2022-12-16T22:20:55;99396.84;;;-4.02;80.93
4024;BME280;2026;51.002;13.668;2022-12-16T22:26:15;99404.16;;;-4.09;81.00
4024;BME280;2026;51.002;13.668;2022-12-16T22:31:38;99404.72;;;-4.30;81.45
4024;BME280;2026;51.002;13.668;2022-12-16T22:36:58;99411.00;;;-4.10;81.64
4024;BME280;2026;51.002;13.668;2022-12-16T22:42:19;99418.94;;;-3.88;80.69
4024;BME280;2026;51.002;13.668;2022-12-16T22:47:40;99426.38;;;-4.10;81.75
4024;BME280;2026;51.002;13.668;2022-12-16T22:53:01;99434.41;;;-3.90;81.07
4024;BME280;2026;51.002;13.668;2022-12-16T22:58:21;99424.00;;;-3.75;80.45
4024;BME280;2026;51.002;13.668;2022-12-16T23:03:43;99435.66;;;-3.71;79.86
4024;BME280;2026;51.002;13.668;2022-12-16T23:09:03;99437.53;;;-3.73;80.19
4024;BME280;2026;51.002;13.668;2022-12-16T23:14:24;99431.28;;;-3.58;80.03
4024;BME280;2026;51.002;13.668;2022-12-16T23:19:45;99445.47;;;-3.65;80.25
4024;BME280;2026;51.002;13.668;2022-12-16T23:25:06;99435.53;;;-3.45;79.09
4024;BME280;2026;51.002;13.668;2022-12-16T23:30:27;99444.34;;;-3.61;79.32
4024;BME280;2026;51.002;13.668;2022-12-16T23:35:48;99440.84;;;-3.60;79.59
4024;BME280;2026;51.002;13.668;2022-12-16T23:41:10;99444.81;;;-3.56;79.68
4024;BME280;2026;51.002;13.668;2022-12-16T23:46:30;99454.13;;;-3.55;79.75
4024;BME280;2026;51.002;13.668;2022-12-16T23:51:52;99462.84;;;-3.57;79.77
4024;BME280;2026;51.002;13.668;2022-12-16T23:57:12;99456.34;;;-3.50;79.46
